createdAt,value
2018-06-09T00:01:39.425Z,21.30
2018-06-09T00:04:07.719Z,22.70
2018-06-09T00:06:35.998Z,26.20
2018-06-09T00:09:05.818Z,21.80
2018-06-09T00:11:34.095Z,21.23
2018-06-09T00:14:02.374Z,22.70
2018-06-09T00:16:30.661Z,21.23
2018-06-09T00:18:58.934Z,21.13
2018-06-09T00:21:27.197Z,20.13
2018-06-09T00:23:55.459Z,20.43
2018-06-09T00:26:23.721Z,21.67
2018-06-09T00:28:51.986Z,20.63
2018-06-09T00:31:20.258Z,24.33
2018-06-09T00:33:48.527Z,22.90
2018-06-09T00:36:16.870Z,21.37
2018-06-09T00:38:45.127Z,20.93
2018-06-09T00:41:13.395Z,20.77
2018-06-09T00:43:41.704Z,22.13
2018-06-09T00:46:09.983Z,24.10
2018-06-09T00:48:38.253Z,23.33
2018-06-09T00:51:06.519Z,24.10
2018-06-09T00:53:34.802Z,22.63
2018-06-09T00:56:44.495Z,22.97
2018-06-09T00:59:12.766Z,23.50
2018-06-09T01:01:41.023Z,22.77
2018-06-09T01:04:09.279Z,23.67
2018-06-09T01:06:37.531Z,23.73
2018-06-09T01:09:07.663Z,22.13
2018-06-09T01:11:36.070Z,21.43
2018-06-09T01:14:04.378Z,22.10
2018-06-09T01:16:32.645Z,22.40
2018-06-09T01:19:00.848Z,24.03
2018-06-09T01:21:28.889Z,20.97
2018-06-09T01:23:57.158Z,23.17
2018-06-09T01:26:25.446Z,20.77
2018-06-09T01:28:53.719Z,23.00
2018-06-09T01:31:22.966Z,19.63
2018-06-09T01:33:51.253Z,23.53
2018-06-09T01:36:19.519Z,20.23
2018-06-09T01:38:47.786Z,26.47
2018-06-09T01:41:16.056Z,22.20
2018-06-09T01:43:44.330Z,20.70
2018-06-09T01:46:12.681Z,19.93
2018-06-09T01:48:40.955Z,20.50
2018-06-09T01:51:09.226Z,20.17
2018-06-09T01:53:37.594Z,20.20
2018-06-09T01:56:05.864Z,24.60
2018-06-09T01:58:33.874Z,21.07
2018-06-09T02:01:02.138Z,24.23
2018-06-09T02:03:30.405Z,22.57
2018-06-09T02:05:58.685Z,26.77
2018-06-09T02:08:26.702Z,21.43
2018-06-09T02:10:54.961Z,20.63
2018-06-09T02:13:23.217Z,21.73
2018-06-09T02:15:51.496Z,21.97
2018-06-09T02:18:19.775Z,27.40
2018-06-09T02:20:48.029Z,24.90
2018-06-09T02:23:16.274Z,21.67
2018-06-09T02:25:44.526Z,23.37
2018-06-09T02:28:12.779Z,26.13
2018-06-09T02:30:41.115Z,29.40
2018-06-09T02:33:09.382Z,21.53
2018-06-09T02:35:37.652Z,23.00
2018-06-09T02:38:05.920Z,23.30
2018-06-09T02:40:34.191Z,27.47
2018-06-09T02:43:02.553Z,23.83
2018-06-09T02:45:30.565Z,24.83
2018-06-09T02:47:58.863Z,24.00
2018-06-09T02:50:27.770Z,26.47
2018-06-09T02:52:56.044Z,23.43
2018-06-09T02:55:24.322Z,24.07
2018-06-09T02:57:52.587Z,22.30
2018-06-09T03:00:20.865Z,23.97
2018-06-09T03:02:49.469Z,24.77
2018-06-09T03:05:17.738Z,23.83
2018-06-09T03:07:46.064Z,26.70
2018-06-09T03:10:14.346Z,24.53
2018-06-09T03:12:42.624Z,27.93
2018-06-09T03:15:10.896Z,23.73
2018-06-09T03:17:38.908Z,26.00
2018-06-09T03:20:07.183Z,23.30
2018-06-09T03:22:35.462Z,28.73
2018-06-09T03:25:03.770Z,25.47
2018-06-09T03:27:32.038Z,25.93
2018-06-09T03:30:00.352Z,28.57
2018-06-09T03:32:28.636Z,22.93
2018-06-09T03:34:56.894Z,22.17
2018-06-09T03:37:25.154Z,31.37
2018-06-09T03:39:53.417Z,23.33
2018-06-09T03:42:22.144Z,22.67
2018-06-09T03:44:50.433Z,22.30
2018-06-09T03:47:18.697Z,23.83
2018-06-09T03:49:46.961Z,25.13
2018-06-09T03:52:15.226Z,22.33
2018-06-09T03:54:43.526Z,23.50
2018-06-09T03:57:11.801Z,26.83
2018-06-09T03:59:40.079Z,25.03
2018-06-09T04:02:08.361Z,21.90
2018-06-09T04:04:36.627Z,20.93
2018-06-09T04:07:04.899Z,25.03
2018-06-09T04:09:33.166Z,24.40
2018-06-09T04:12:01.451Z,24.80
2018-06-09T04:14:29.812Z,23.23
2018-06-09T04:16:58.238Z,22.27
2018-06-09T04:19:26.517Z,22.30
2018-06-09T04:21:54.806Z,23.90
2018-06-09T04:24:23.082Z,22.10
2018-06-09T04:26:51.352Z,24.90
2018-06-09T04:29:19.767Z,25.90
2018-06-09T04:31:48.133Z,26.17
2018-06-09T04:34:16.406Z,21.80
2018-06-09T04:36:44.678Z,21.73
2018-06-09T04:39:12.966Z,23.30
2018-06-09T04:41:41.017Z,22.90
2018-06-09T04:44:09.313Z,21.53
2018-06-09T04:46:37.590Z,22.47
2018-06-09T04:49:05.867Z,21.97
2018-06-09T04:51:34.131Z,21.17
2018-06-09T04:54:02.414Z,21.53
2018-06-09T04:56:30.678Z,21.70
2018-06-09T04:58:58.982Z,23.40
2018-06-09T05:01:27.412Z,22.43
2018-06-09T05:03:55.695Z,21.63
2018-06-09T05:06:23.962Z,22.60
2018-06-09T05:08:52.246Z,23.10
2018-06-09T05:11:21.702Z,21.10
2018-06-09T05:13:49.974Z,21.03
2018-06-09T05:16:18.231Z,21.53
2018-06-09T05:18:46.505Z,21.17
2018-06-09T05:21:14.779Z,20.37
2018-06-09T05:23:43.048Z,20.57
2018-06-09T05:26:11.318Z,21.40
2018-06-09T05:28:39.594Z,20.73
2018-06-09T05:31:07.885Z,24.90
2018-06-09T05:33:36.167Z,20.20
2018-06-09T05:36:04.506Z,20.07
2018-06-09T05:38:32.809Z,19.33
2018-06-09T05:41:01.797Z,19.27
2018-06-09T05:43:31.600Z,18.07
2018-06-09T05:46:00.688Z,19.83
2018-06-09T05:48:28.962Z,18.93
2018-06-09T05:50:57.243Z,18.30
2018-06-09T05:53:25.517Z,18.83
2018-06-09T05:55:53.798Z,19.93
2018-06-09T05:58:22.139Z,18.47
2018-06-09T06:00:50.494Z,15.70
2018-06-09T06:03:18.501Z,13.90
2018-06-09T06:05:46.843Z,16.50
2018-06-09T06:08:15.150Z,15.50
2018-06-09T06:10:43.420Z,14.87
2018-06-09T06:13:11.876Z,13.05
2018-06-09T06:15:40.150Z,11.12
2018-06-09T06:18:08.415Z,11.43
2018-06-09T06:20:36.680Z,12.75
2018-06-09T06:23:04.951Z,12.60
2018-06-09T06:25:33.215Z,11.03
2018-06-09T06:28:01.516Z,11.35
2018-06-09T06:30:29.847Z,10.98
2018-06-09T06:32:58.236Z,11.45
2018-06-09T06:35:26.506Z,10.28
2018-06-09T06:37:54.795Z,10.82
2018-06-09T06:40:23.210Z,10.45
2018-06-09T06:42:52.113Z,11.03
2018-06-09T06:45:20.383Z,12.03
2018-06-09T06:47:48.761Z,9.63
2018-06-09T06:50:17.478Z,10.35
2018-06-09T06:52:45.698Z,10.28
2018-06-09T06:55:13.985Z,10.15
2018-06-09T06:57:42.253Z,10.30
2018-06-09T07:00:10.535Z,11.20
2018-06-09T07:02:38.818Z,11.00
2018-06-09T07:05:07.095Z,10.70
2018-06-09T07:10:26.319Z,11.33
2018-06-09T07:12:54.578Z,10.03
2018-06-09T07:15:22.873Z,10.25
2018-06-09T07:17:51.712Z,8.93
2018-06-09T07:20:19.978Z,10.00
2018-06-09T07:22:47.993Z,9.53
2018-06-09T07:25:17.130Z,9.50
2018-06-09T07:27:45.521Z,9.70
2018-06-09T07:30:13.794Z,9.35
2018-06-09T07:32:42.186Z,10.38
2018-06-09T07:35:10.480Z,9.63
2018-06-09T07:37:38.899Z,9.08
2018-06-09T07:40:07.199Z,8.78
2018-06-09T07:42:35.449Z,9.98
2018-06-09T07:45:04.145Z,9.10
2018-06-09T07:47:34.241Z,9.90
2018-06-09T07:50:02.652Z,10.08
2018-06-09T07:52:30.906Z,8.10
2018-06-09T07:54:59.169Z,8.40
2018-06-09T07:57:29.412Z,8.45
2018-06-09T07:59:57.847Z,8.55
2018-06-09T08:02:26.278Z,9.50
2018-06-09T08:04:54.538Z,9.30
2018-06-09T08:07:22.775Z,9.75
2018-06-09T08:09:51.029Z,8.85
2018-06-09T08:12:19.275Z,9.13
2018-06-09T08:14:47.518Z,9.50
2018-06-09T08:17:15.774Z,9.00
2018-06-09T08:19:44.028Z,9.28
2018-06-09T08:22:12.298Z,9.53
2018-06-09T08:24:40.545Z,8.98
2018-06-09T08:27:08.891Z,9.45
2018-06-09T08:29:37.147Z,9.85
2018-06-09T08:32:05.535Z,9.25
2018-06-09T08:34:33.790Z,9.25
2018-06-09T08:37:02.064Z,10.45
2018-06-09T08:39:30.061Z,8.23
2018-06-09T08:41:58.388Z,7.67
2018-06-09T08:44:26.657Z,8.05
2018-06-09T08:46:54.925Z,7.05
2018-06-09T08:49:23.179Z,7.78
2018-06-09T08:51:51.418Z,7.78
2018-06-09T08:54:19.668Z,8.38
2018-06-09T08:56:47.927Z,8.80
2018-06-09T08:59:16.182Z,9.08
2018-06-09T09:01:44.426Z,8.55
2018-06-09T09:04:19.125Z,8.33
2018-06-09T09:06:47.375Z,8.15
2018-06-09T09:09:15.633Z,7.83
2018-06-09T09:11:43.961Z,7.90
2018-06-09T09:14:12.222Z,8.43
2018-06-09T09:16:40.465Z,9.08
2018-06-09T09:19:08.832Z,7.67
2018-06-09T09:21:37.150Z,8.88
2018-06-09T09:24:05.409Z,8.65
2018-06-09T09:26:33.939Z,7.60
2018-06-09T09:29:02.212Z,7.47
2018-06-09T09:31:30.474Z,7.85
2018-06-09T09:33:58.874Z,7.47
2018-06-09T09:36:27.156Z,9.00
2018-06-09T09:38:55.399Z,7.92
2018-06-09T09:41:23.637Z,6.70
2018-06-09T09:43:52.185Z,7.72
2018-06-09T09:46:20.438Z,7.80
2018-06-09T09:48:48.698Z,9.23
2018-06-09T09:51:16.954Z,8.45
2018-06-09T09:53:45.205Z,7.00
2018-06-09T09:56:13.446Z,6.75
2018-06-09T09:58:41.708Z,8.98
2018-06-09T10:01:10.002Z,7.17
2018-06-09T10:06:29.059Z,6.97
2018-06-09T10:08:57.341Z,8.83
2018-06-09T10:11:25.604Z,7.70
2018-06-09T10:13:53.887Z,7.65
2018-06-09T10:16:22.211Z,6.67
2018-06-09T10:18:50.563Z,6.70
2018-06-09T10:21:18.878Z,6.62
2018-06-09T10:23:47.170Z,8.03
2018-06-09T10:26:15.471Z,6.83
2018-06-09T10:28:43.839Z,7.40
2018-06-09T10:31:12.126Z,6.05
2018-06-09T10:33:40.415Z,6.47
2018-06-09T10:36:08.716Z,7.78
2018-06-09T10:38:37.058Z,6.40
2018-06-09T10:41:05.302Z,7.83
2018-06-09T10:43:34.151Z,10.25
2018-06-09T10:46:02.442Z,7.05
2018-06-09T10:48:30.739Z,6.95
2018-06-09T10:50:59.059Z,6.87
2018-06-09T10:53:27.362Z,7.50
2018-06-09T10:55:57.044Z,6.80
2018-06-09T10:58:25.355Z,7.47
2018-06-09T11:00:53.645Z,7.62
2018-06-09T11:03:21.791Z,7.42
2018-06-09T11:05:50.178Z,6.70
2018-06-09T11:08:18.467Z,8.35
2018-06-09T11:10:46.782Z,7.75
2018-06-09T11:13:15.071Z,7.17
2018-06-09T11:15:43.090Z,9.70
2018-06-09T11:18:11.371Z,7.70
2018-06-09T11:20:39.659Z,6.75
2018-06-09T11:23:07.953Z,5.92
2018-06-09T11:25:36.245Z,8.38
2018-06-09T11:28:04.607Z,6.33
2018-06-09T11:30:32.900Z,7.60
2018-06-09T11:33:01.247Z,11.90
2018-06-09T11:35:29.544Z,6.45
2018-06-09T11:37:57.884Z,7.40
2018-06-09T11:40:26.185Z,7.53
2018-06-09T11:42:54.462Z,8.53
2018-06-09T11:45:23.052Z,6.30
2018-06-09T11:47:51.351Z,6.25
2018-06-09T11:50:19.772Z,6.30
2018-06-09T11:55:15.223Z,5.45
2018-06-09T11:57:43.500Z,6.08
2018-06-09T12:00:11.830Z,6.35
2018-06-09T12:02:40.105Z,6.22
2018-06-09T12:05:08.392Z,6.62
2018-06-09T12:07:36.696Z,6.03
2018-06-09T12:10:05.015Z,6.15
2018-06-09T12:12:33.297Z,6.20
2018-06-09T12:15:01.573Z,6.55
2018-06-09T12:17:29.863Z,8.65
2018-06-09T12:19:58.187Z,8.38
2018-06-09T12:22:26.500Z,8.58
2018-06-09T12:24:54.840Z,10.18
2018-06-09T12:27:23.124Z,8.75
2018-06-09T12:29:51.425Z,7.85
2018-06-09T12:32:19.710Z,12.28
2018-06-09T12:34:48.002Z,9.43
2018-06-09T12:37:16.532Z,8.80
2018-06-09T12:39:44.948Z,14.43
2018-06-09T12:42:13.244Z,9.03
2018-06-09T12:44:42.314Z,7.08
2018-06-09T12:47:10.679Z,10.13
2018-06-09T12:49:39.012Z,9.85
2018-06-09T12:52:07.419Z,10.93
2018-06-09T12:54:35.797Z,11.43
2018-06-09T12:57:04.117Z,12.00
2018-06-09T12:59:32.411Z,5.83
2018-06-09T13:02:00.711Z,11.03
2018-06-09T13:04:29.022Z,10.32
2018-06-09T13:06:57.381Z,6.45
2018-06-09T13:09:25.653Z,7.60
2018-06-09T13:11:53.959Z,8.95
2018-06-09T13:14:22.234Z,9.93
2018-06-09T13:16:50.569Z,9.80
2018-06-09T13:19:18.870Z,10.18
2018-06-09T13:21:47.219Z,8.83
2018-06-09T13:24:15.524Z,8.70
2018-06-09T13:26:43.805Z,10.90
2018-06-09T13:29:12.148Z,9.68
2018-06-09T13:31:40.444Z,11.15
2018-06-09T13:34:08.730Z,7.80
2018-06-09T13:36:37.007Z,9.15
2018-06-09T13:39:07.272Z,9.55
2018-06-09T13:41:36.039Z,9.50
2018-06-09T13:44:04.355Z,6.65
2018-06-09T13:46:32.644Z,7.97
2018-06-09T13:49:00.958Z,9.25
2018-06-09T13:51:29.262Z,7.10
2018-06-09T13:53:57.669Z,7.58
2018-06-09T13:56:25.982Z,8.30
2018-06-09T13:58:54.983Z,6.87
2018-06-09T14:01:23.251Z,8.78
2018-06-09T14:03:51.567Z,8.23
2018-06-09T14:06:19.890Z,10.00
2018-06-09T14:08:48.180Z,9.50
2018-06-09T14:11:16.523Z,8.75
2018-06-09T14:13:44.824Z,10.15
2018-06-09T14:16:13.184Z,9.88
2018-06-09T14:18:41.489Z,7.55
2018-06-09T14:21:09.767Z,9.68
2018-06-09T14:23:38.119Z,9.80
2018-06-09T14:26:06.387Z,7.25
2018-06-09T14:28:34.654Z,8.43
2018-06-09T14:31:02.926Z,12.28
2018-06-09T14:33:31.214Z,7.83
2018-06-09T14:35:59.607Z,9.93
2018-06-09T14:38:27.938Z,18.23
2018-06-09T14:40:55.963Z,8.70
2018-06-09T14:43:24.331Z,13.03
2018-06-09T14:45:52.658Z,8.63
2018-06-09T14:51:11.667Z,7.67
2018-06-09T14:53:39.661Z,8.23
2018-06-09T14:56:07.730Z,9.37
2018-06-09T14:58:35.989Z,6.07
2018-06-09T15:01:04.250Z,10.20
2018-06-09T15:03:32.515Z,10.37
2018-06-09T15:06:00.795Z,15.30
2018-06-09T15:08:29.150Z,15.30
2018-06-09T15:10:57.462Z,10.53
2018-06-09T15:13:25.724Z,16.70
2018-06-09T15:15:53.994Z,18.93
2018-06-09T15:18:22.425Z,19.40
2018-06-09T15:20:50.701Z,12.23
2018-06-09T15:23:18.708Z,15.80
2018-06-09T15:25:46.990Z,22.10
2018-06-09T15:28:15.281Z,10.50
2018-06-09T15:30:43.535Z,14.47
2018-06-09T15:33:11.800Z,16.67
2018-06-09T15:35:40.067Z,13.93
2018-06-09T15:38:08.419Z,12.83
2018-06-09T15:40:36.693Z,13.43
2018-06-09T15:43:04.998Z,12.30
2018-06-09T15:45:33.261Z,12.87
2018-06-09T15:48:01.536Z,15.63
2018-06-09T15:50:29.802Z,13.80
2018-06-09T15:52:58.117Z,14.20
2018-06-09T15:55:26.405Z,15.43
2018-06-09T15:57:54.675Z,11.07
2018-06-09T16:00:22.976Z,11.13
2018-06-09T16:02:52.138Z,11.73
2018-06-09T16:05:20.874Z,11.30
2018-06-09T16:07:49.129Z,10.27
2018-06-09T16:10:18.046Z,12.60
2018-06-09T16:12:46.310Z,13.17
2018-06-09T16:15:15.395Z,12.03
2018-06-09T16:17:44.186Z,11.70
2018-06-09T16:20:12.541Z,19.70
2018-06-09T16:22:40.858Z,13.80
2018-06-09T16:25:09.203Z,12.60
2018-06-09T16:27:37.459Z,17.67
2018-06-09T16:30:05.751Z,13.77
2018-06-09T16:32:34.004Z,14.30
2018-06-09T16:35:02.073Z,13.17
2018-06-09T16:37:30.382Z,11.73
2018-06-09T16:39:58.678Z,13.77
2018-06-09T16:42:26.974Z,13.13
2018-06-09T16:44:55.271Z,14.77
2018-06-09T16:47:23.544Z,15.57
2018-06-09T16:49:51.810Z,12.73
2018-06-09T16:52:20.074Z,13.57
2018-06-09T16:54:48.459Z,13.93
2018-06-09T16:57:16.834Z,20.30
2018-06-09T16:59:45.284Z,13.27
2018-06-09T17:02:13.566Z,17.23
2018-06-09T17:04:41.836Z,14.50
2018-06-09T17:07:10.938Z,16.30
2018-06-09T17:09:39.206Z,17.00
2018-06-09T17:12:07.522Z,15.50
2018-06-09T17:14:35.790Z,15.77
2018-06-09T17:17:04.203Z,15.90
2018-06-09T17:19:32.494Z,16.47
2018-06-09T17:22:00.792Z,17.53
2018-06-09T17:24:29.106Z,18.37
2018-06-09T17:26:57.420Z,15.93
2018-06-09T17:29:25.699Z,20.87
2018-06-09T17:31:54.016Z,19.93
2018-06-09T17:34:22.287Z,17.77
2018-06-09T17:36:50.645Z,19.93
2018-06-09T17:39:18.986Z,20.63
2018-06-09T17:41:47.272Z,17.33
2018-06-09T17:44:15.558Z,17.97
2018-06-09T17:46:43.924Z,19.63
2018-06-09T17:49:12.224Z,18.50
2018-06-09T17:51:40.555Z,22.37
2018-06-09T17:54:08.829Z,19.27
2018-06-09T17:56:37.110Z,20.30
2018-06-09T17:59:06.271Z,20.63
2018-06-09T18:01:34.558Z,20.67
2018-06-09T18:04:02.832Z,19.73
2018-06-09T18:06:32.927Z,19.23
2018-06-09T18:09:01.191Z,18.30
2018-06-09T18:11:29.474Z,17.90
2018-06-09T18:13:57.743Z,19.17
2018-06-09T18:16:26.083Z,19.23
2018-06-09T18:18:54.347Z,20.70
2018-06-09T18:21:22.613Z,20.40
2018-06-09T18:23:50.935Z,18.23
2018-06-09T18:26:19.242Z,19.77
2018-06-09T18:28:47.502Z,20.50
2018-06-09T18:31:15.774Z,20.97
2018-06-09T18:33:43.856Z,22.23
2018-06-09T18:36:12.131Z,20.30
2018-06-09T18:38:40.415Z,19.47
2018-06-09T18:41:08.813Z,19.33
2018-06-09T18:43:37.354Z,17.63
2018-06-09T18:46:05.655Z,17.77
2018-06-09T18:48:33.958Z,19.10
2018-06-09T18:51:02.251Z,20.80
2018-06-09T18:53:30.595Z,21.97
2018-06-09T18:55:58.891Z,20.27
2018-06-09T18:58:27.240Z,20.70
2018-06-09T19:00:55.337Z,21.73
2018-06-09T19:03:23.614Z,20.53
2018-06-09T19:05:51.910Z,20.27
2018-06-09T19:08:20.191Z,24.17
2018-06-09T19:10:48.511Z,22.27
2018-06-09T19:13:16.867Z,21.33
2018-06-09T19:15:45.161Z,22.13
2018-06-09T19:18:13.446Z,22.40
2018-06-09T19:20:45.672Z,24.20
2018-06-09T19:23:13.943Z,21.90
2018-06-09T19:25:42.267Z,22.93
2018-06-09T19:28:10.591Z,21.97
2018-06-09T19:30:38.907Z,22.43
2018-06-09T19:33:07.219Z,24.00
2018-06-09T19:35:35.515Z,24.77
2018-06-09T19:38:03.854Z,27.03
2018-06-09T19:40:32.186Z,23.87
2018-06-09T19:43:00.491Z,25.50
2018-06-09T19:45:28.770Z,24.67
2018-06-09T19:47:57.075Z,25.83
2018-06-09T19:50:25.387Z,22.63
2018-06-09T19:52:53.660Z,23.83
2018-06-09T19:55:21.947Z,26.30
2018-06-09T19:57:50.299Z,24.97
2018-06-09T20:00:18.594Z,25.00
2018-06-09T20:02:46.882Z,25.90
2018-06-09T20:05:15.167Z,26.93
2018-06-09T20:07:43.470Z,24.77
2018-06-09T20:10:11.750Z,26.30
2018-06-09T20:12:40.086Z,25.70
2018-06-09T20:15:08.519Z,26.77
2018-06-09T20:17:36.785Z,28.97
2018-06-09T20:20:05.121Z,26.17
2018-06-09T20:22:33.135Z,27.00
2018-06-09T20:25:01.440Z,27.70
2018-06-09T20:27:29.426Z,25.53
2018-06-09T20:29:57.692Z,25.27
2018-06-09T20:32:26.233Z,26.50
2018-06-09T20:34:54.723Z,26.90
2018-06-09T20:37:23.080Z,27.83
2018-06-09T20:39:51.344Z,26.40
2018-06-09T20:42:19.647Z,26.00
2018-06-09T20:44:47.930Z,26.13
2018-06-09T20:47:16.229Z,26.23
2018-06-09T20:49:44.528Z,28.80
2018-06-09T20:52:12.803Z,30.80
2018-06-09T20:54:41.182Z,25.17
2018-06-09T20:57:09.489Z,29.27
2018-06-09T20:59:38.405Z,27.23
2018-06-09T21:02:06.715Z,25.67
2018-06-09T21:04:34.749Z,24.93
2018-06-09T21:07:03.019Z,25.47
2018-06-09T21:09:31.636Z,25.23
2018-06-09T21:11:59.944Z,23.37
2018-06-09T21:14:28.223Z,26.47
2018-06-09T21:16:56.656Z,25.00
2018-06-09T21:19:25.008Z,27.00
2018-06-09T21:21:53.458Z,28.13
2018-06-09T21:24:21.805Z,26.80
2018-06-09T21:26:55.528Z,27.20
2018-06-09T21:29:29.254Z,28.17
2018-06-09T21:32:01.754Z,28.43
2018-06-09T21:34:46.959Z,26.47
2018-06-09T21:37:15.218Z,27.40
2018-06-09T21:39:48.924Z,25.13
2018-06-09T21:42:22.593Z,23.47
2018-06-09T21:44:56.266Z,24.77
2018-06-09T21:47:24.519Z,24.40
2018-06-09T21:49:52.775Z,24.20
2018-06-09T21:52:22.777Z,24.60
2018-06-09T21:54:51.031Z,24.87
2018-06-09T21:57:19.350Z,27.97
2018-06-09T21:59:47.612Z,24.50
2018-06-09T22:02:15.876Z,26.23
2018-06-09T22:04:44.153Z,24.83
2018-06-09T22:07:12.395Z,26.07
2018-06-09T22:09:40.642Z,26.27
2018-06-09T22:12:08.909Z,26.03
2018-06-09T22:14:37.169Z,30.57
2018-06-09T22:17:05.442Z,29.37
2018-06-09T22:19:33.744Z,28.93
2018-06-09T22:22:01.974Z,30.97
2018-06-09T22:24:30.232Z,31.63
2018-06-09T22:26:58.615Z,28.40
2018-06-09T22:29:26.872Z,28.50
2018-06-09T22:31:55.164Z,32.03
2018-06-09T22:34:23.422Z,31.43
2018-06-09T22:36:51.698Z,30.37
2018-06-09T22:39:19.960Z,30.10
2018-06-09T22:41:48.248Z,30.87
2018-06-09T22:44:16.543Z,28.73
2018-06-09T22:46:44.833Z,30.30
2018-06-09T22:49:13.090Z,31.37
2018-06-09T22:51:41.453Z,30.77
2018-06-09T22:54:09.702Z,29.63
2018-06-09T22:56:38.053Z,29.20
2018-06-09T22:59:06.299Z,33.23
2018-06-09T23:01:34.546Z,32.40
2018-06-09T23:04:02.803Z,31.33
2018-06-09T23:06:31.055Z,31.07
2018-06-09T23:08:59.308Z,30.00
2018-06-09T23:11:27.560Z,28.43
2018-06-09T23:13:55.857Z,29.80
2018-06-09T23:16:24.143Z,28.30
2018-06-09T23:18:52.403Z,30.43
2018-06-09T23:21:20.672Z,28.60
2018-06-09T23:23:48.933Z,28.13
2018-06-09T23:26:17.189Z,29.57
2018-06-09T23:28:45.534Z,28.03
2018-06-09T23:31:13.791Z,26.50
2018-06-09T23:33:42.068Z,30.37
2018-06-09T23:36:10.322Z,28.73
2018-06-09T23:38:38.570Z,30.53
2018-06-09T23:41:06.835Z,25.53
2018-06-09T23:43:35.095Z,26.83
2018-06-09T23:46:03.349Z,28.93
2018-06-09T23:48:31.608Z,26.63
2018-06-09T23:50:59.873Z,31.70
2018-06-09T23:53:28.134Z,30.67
2018-06-09T23:55:56.387Z,28.87
2018-06-09T23:58:24.756Z,33.07
